This is the latest recevied weather packets stored in our database for station/object AE0NK. If no packets are shown the sender has not sent any weather packets the latest 10 day(s).
| Time | Temp. | Humidity | Pressure | Rain* | Wind** | Luminosity | Snow |
|---|---|---|---|---|---|---|---|
| 1777566197 | 11.67° C | 72% | 1017 hPa | 0 mm | - | 320 W/m² | - |
| 1777565895 | 11.67° C | 70% | 1017 hPa | 0 mm | - | 186 W/m² | - |
| 1777565593 | 11.67° C | 68% | 1017 hPa | 0 mm | - | 172 W/m² | - |
| 1777565311 | 11.67° C | 67% | 1017 hPa | 0 mm | - | 172 W/m² | - |
| 1777565010 | 12.22° C | 64% | 1017 hPa | 0 mm | - | 160 W/m² | - |
| 1777564703 | 12.22° C | 64% | 1017 hPa | 0 mm | - | 195 W/m² | - |
| 1777564401 | 12.22° C | 62% | 1017 hPa | 0 mm | - | 213 W/m² | - |
| 1777564099 | 12.22° C | 62% | 1016.9 hPa | 0 mm | - | 218 W/m² | - |
| 1777563798 | 12.22° C | 61% | 1016.9 hPa | 0 mm | - | 248 W/m² | - |
| 1777563495 | 12.22° C | 61% | 1017 hPa | 0 mm | - | 250 W/m² | - |
| 1777563192 | 12.22° C | 60% | 1016.9 hPa | 0 mm | - | 225 W/m² | - |
| 1777562908 | 12.22° C | 60% | 1016.9 hPa | 0 mm | - | 292 W/m² | - |
| 1777562606 | 12.22° C | 60% | 1016.9 hPa | 0 mm | - | 253 W/m² | - |
| 1777562303 | 12.22° C | 60% | 1016.9 hPa | 0 mm | - | 207 W/m² | - |
| 1777562002 | 12.22° C | 61% | 1016.8 hPa | 0 mm | - | 171 W/m² | - |
| 1777561700 | 11.67° C | 61% | 1016.8 hPa | 0 mm | - | 216 W/m² | - |
| 1777561398 | 11.67° C | 61% | 1016.8 hPa | 0 mm | - | 197 W/m² | - |
| 1777561111 | 11.67° C | 62% | 1016.9 hPa | 0 mm | - | 232 W/m² | - |
| 1777560809 | 11.67° C | 62% | 1016.9 hPa | 0 mm | - | 167 W/m² | - |
| 1777560507 | 11.67° C | 61% | 1017.1 hPa | 0 mm | - | 137 W/m² | - |
| 1777560204 | 11.67° C | 61% | 1016.8 hPa | 0 mm | - | 160 W/m² | - |
| 1777559903 | 11.67° C | 62% | 1016.8 hPa | 0 mm | - | 248 W/m² | - |
| 1777559601 | 11.67° C | 62% | 1016.7 hPa | 0 mm | - | 253 W/m² | - |
| 1777559299 | 11.11° C | 63% | 1016.6 hPa | 0 mm | - | 269 W/m² | - |
| 1777558996 | 10.56° C | 68% | 1016.5 hPa | 0 mm | - | 480 W/m² | - |
* Rain latest hour (hover to see other rain measurements)
** Current wind speed in m/s (hover to see current wind gust speed)